Time;durP1;ratioP1;P1;durP2;ratioP2;P2;SDS_P1;SDS_P2;PMS_P1;PMS_P2;Temp;Humidity;BMP_temperature;BMP_pressure;BME280_temperature;BME280_humidity;BME280_pressure;Samples;Min_cycle;Max_cycle;Signal;HPM_P1;HPM_P2
2022/04/10 00:00:12;;;;;;;6.55;2.00;;;3.10;87.00;;;;;;6275667;22;20053;-53
2022/04/10 00:02:41;;;;;;;10.52;2.85;;;3.10;87.00;;;;;;6275621;22;20327;-54
2022/04/10 00:05:07;;;;;;;8.60;2.20;;;3.10;87.20;;;;;;6275773;22;20023;-49
2022/04/10 00:07:36;;;;;;;12.23;2.38;;;3.20;87.40;;;;;;6275833;22;20008;-52
2022/04/10 00:10:06;;;;;;;7.28;2.30;;;3.30;87.60;;;;;;6275513;22;20007;-56
2022/04/10 00:12:36;;;;;;;10.05;2.10;;;3.30;87.30;;;;;;6275663;22;20034;-55
2022/04/10 00:15:04;;;;;;;19.73;2.92;;;3.20;87.30;;;;;;6276131;22;20082;-54
2022/04/10 00:17:31;;;;;;;11.63;2.50;;;3.30;87.30;;;;;;6249145;22;20065;-55
2022/04/10 00:19:58;;;;;;;14.57;3.17;;;3.30;87.30;;;;;;6248830;22;20462;-52
2022/04/10 00:22:25;;;;;;;11.32;2.70;;;3.20;87.10;;;;;;6275412;22;20018;-53
2022/04/10 00:24:52;;;;;;;7.63;2.20;;;3.30;87.20;;;;;;6275988;22;20349;-53
2022/04/10 00:27:20;;;;;;;10.18;2.45;;;3.30;87.40;;;;;;6275845;22;20406;-50
2022/04/10 00:29:46;;;;;;;8.98;2.72;;;3.40;87.50;;;;;;6248496;22;20069;-51
2022/04/10 00:32:12;;;;;;;14.75;3.15;;;3.40;87.20;;;;;;6249033;22;20018;-52
2022/04/10 00:34:39;;;;;;;14.30;2.45;;;3.40;87.20;;;;;;6276030;22;20004;-53
2022/04/10 00:37:06;;;;;;;10.98;2.90;;;3.40;87.20;;;;;;6276038;22;19999;-48
2022/04/10 00:39:34;;;;;;;8.70;2.85;;;3.40;86.90;;;;;;6248675;22;20007;-49
2022/04/10 00:42:01;;;;;;;10.50;2.50;;;3.30;86.60;;;;;;6275084;22;20385;-48
2022/04/10 00:44:27;;;;;;;6.97;2.13;;;3.20;86.70;;;;;;6275636;22;20007;-48
2022/04/10 00:46:52;;;;;;;8.85;2.47;;;3.20;86.80;;;;;;6248626;22;20061;-48
2022/04/10 00:49:20;;;;;;;10.07;3.90;;;3.10;87.00;;;;;;6248978;22;20007;-51
2022/04/10 00:51:46;;;;;;;18.38;3.40;;;3.10;87.20;;;;;;6275624;22;20405;-52
2022/04/10 00:54:24;;;;;;;17.38;3.78;;;3.10;87.40;;;;;;6249564;22;20007;-49
2022/04/10 00:56:55;;;;;;;13.48;3.40;;;3.20;87.60;;;;;;6251334;22;20083;-47
2022/04/10 00:59:22;;;;;;;13.80;3.38;;;3.20;87.60;;;;;;6277229;22;20062;-47
2022/04/10 01:01:50;;;;;;;18.10;5.25;;;3.20;87.70;;;;;;6250370;22;20003;-50
2022/04/10 01:04:16;;;;;;;12.40;3.75;;;3.30;87.70;;;;;;6277150;22;20004;-47
2022/04/10 01:06:55;;;;;;;11.65;3.58;;;3.30;87.60;;;;;;6250544;22;20011;-48
2022/04/10 01:09:27;;;;;;;18.23;3.78;;;3.20;87.30;;;;;;6277420;22;19996;-48
2022/04/10 01:11:57;;;;;;;11.23;4.22;;;3.20;87.20;;;;;;6277063;22;20053;-50
2022/04/10 01:14:24;;;;;;;10.05;2.65;;;3.10;87.10;;;;;;6276994;22;20014;-49
2022/04/10 01:16:53;;;;;;;13.45;3.13;;;3.00;86.80;;;;;;6276810;22;20014;-48
2022/04/10 01:19:19;;;;;;;10.43;2.92;;;3.00;86.70;;;;;;6250832;22;20007;-53
2022/04/10 01:21:48;;;;;;;10.52;3.28;;;3.00;86.80;;;;;;6276615;22;20003;-48
2022/04/10 01:24:15;;;;;;;12.10;3.13;;;3.00;86.90;;;;;;6277284;22;20007;-51
2022/04/10 01:26:46;;;;;;;13.68;3.38;;;3.00;86.90;;;;;;6250743;22;20014;-49
2022/04/10 01:29:13;;;;;;;13.68;4.32;;;3.00;86.80;;;;;;6276913;22;20089;-49
2022/04/10 01:31:43;;;;;;;14.57;3.22;;;3.00;86.80;;;;;;6250365;22;20063;-49
2022/04/10 01:34:13;;;;;;;14.65;4.47;;;3.10;86.90;;;;;;6249935;22;20083;-48
2022/04/10 01:36:41;;;;;;;17.00;3.55;;;3.10;86.70;;;;;;6277070;22;20011;-48
2022/04/10 01:39:12;;;;;;;15.70;3.72;;;3.20;86.80;;;;;;6249896;22;20003;-61
2022/04/10 01:41:38;;;;;;;12.73;3.55;;;3.20;86.70;;;;;;6275845;22;20008;-58
2022/04/10 01:44:06;;;;;;;14.95;3.13;;;3.10;86.30;;;;;;6250809;22;20079;-55
2022/04/10 01:46:33;;;;;;;11.68;3.08;;;3.10;86.50;;;;;;6250351;22;20464;-56
2022/04/10 01:49:00;;;;;;;20.58;4.22;;;3.10;86.70;;;;;;6250383;22;20351;-58
2022/04/10 01:51:27;;;;;;;15.80;2.85;;;3.10;86.80;;;;;;6276997;22;20003;-59
2022/04/10 01:53:55;;;;;;;15.15;3.35;;;3.20;86.80;;;;;;6250169;22;20021;-60
2022/04/10 01:56:25;;;;;;;12.85;3.55;;;3.20;86.80;;;;;;6250142;22;20011;-59
2022/04/10 01:58:52;;;;;;;21.50;4.07;;;3.10;86.80;;;;;;6249046;22;20008;-59
2022/04/10 02:01:20;;;;;;;12.43;4.05;;;3.20;86.90;;;;;;6248966;22;20004;-58
2022/04/10 02:03:47;;;;;;;12.60;4.40;;;3.20;87.00;;;;;;6275784;22;20302;-58
2022/04/10 02:06:15;;;;;;;17.25;3.83;;;3.20;87.10;;;;;;6276416;22;20443;-58
2022/04/10 02:08:42;;;;;;;19.75;3.88;;;3.10;86.60;;;;;;6276367;22;20010;-56
2022/04/10 02:11:27;;;;;;;11.02;3.92;;;3.10;86.70;;;;;;6276199;22;19996;-57
2022/04/10 02:13:53;;;;;;;17.02;3.22;;;3.10;86.70;;;;;;6276872;22;20012;-55
2022/04/10 02:16:20;;;;;;;8.93;3.92;;;3.00;86.70;;;;;;6276287;22;20016;-57
2022/04/10 02:18:47;;;;;;;18.58;3.35;;;3.10;86.90;;;;;;6276463;22;20082;-60
2022/04/10 02:21:14;;;;;;;10.45;2.97;;;3.20;87.10;;;;;;6275542;22;20023;-58
2022/04/10 02:23:41;;;;;;;10.75;3.38;;;3.20;86.90;;;;;;6276588;22;19992;-57
2022/04/10 02:26:11;;;;;;;17.30;4.00;;;3.20;87.00;;;;;;6250133;22;20053;-60
2022/04/10 02:28:41;;;;;;;15.23;3.25;;;3.20;87.10;;;;;;6276157;22;20570;-61
2022/04/10 02:31:08;;;;;;;17.73;4.90;;;3.30;87.50;;;;;;6275998;22;20014;-61
2022/04/10 02:33:35;;;;;;;12.55;4.00;;;3.40;87.50;;;;;;6276261;22;20003;-62
2022/04/10 02:36:03;;;;;;;15.73;4.22;;;3.40;87.50;;;;;;6276534;22;20073;-62
2022/04/10 02:38:29;;;;;;;15.23;4.28;;;3.40;87.50;;;;;;6276440;22;20079;-61
2022/04/10 02:40:55;;;;;;;16.50;4.05;;;3.50;87.70;;;;;;6276183;22;20003;-60
2022/04/10 02:43:25;;;;;;;22.75;6.00;;;3.60;87.80;;;;;;6249468;22;20004;-59
2022/04/10 02:45:51;;;;;;;12.75;3.33;;;3.80;87.70;;;;;;6276441;22;20061;-59
2022/04/10 02:48:18;;;;;;;17.92;4.72;;;3.80;87.20;;;;;;6276807;22;20031;-56
2022/04/10 02:50:45;;;;;;;22.40;3.88;;;3.90;86.40;;;;;;6275299;22;20000;-51
2022/04/10 02:53:12;;;;;;;16.45;4.78;;;3.90;85.50;;;;;;6276184;22;20035;-55
2022/04/10 02:55:39;;;;;;;19.95;4.10;;;4.00;84.80;;;;;;6249111;22;20027;-52
2022/04/10 02:58:05;;;;;;;17.38;3.80;;;4.00;84.60;;;;;;6276923;22;20019;-50
2022/04/10 03:00:33;;;;;;;18.35;3.40;;;4.00;84.50;;;;;;6276259;22;20004;-50
2022/04/10 03:03:00;;;;;;;16.48;3.88;;;4.10;84.10;;;;;;6249437;22;20037;-49
2022/04/10 03:05:27;;;;;;;19.50;3.70;;;4.20;83.70;;;;;;6275998;22;20004;-49
2022/04/10 03:07:54;;;;;;;15.07;4.20;;;4.10;83.30;;;;;;6249739;22;20004;-49
2022/04/10 03:10:22;;;;;;;15.98;5.20;;;4.10;82.90;;;;;;6275872;22;20004;-47
2022/04/10 03:12:48;;;;;;;15.00;3.83;;;4.10;82.60;;;;;;6250007;22;20008;-53
2022/04/10 03:15:14;;;;;;;17.38;3.95;;;4.00;82.30;;;;;;6275860;22;20069;-47
2022/04/10 03:17:41;;;;;;;14.60;3.83;;;4.10;82.10;;;;;;6276243;22;20446;-47
2022/04/10 03:20:11;;;;;;;18.42;3.72;;;4.10;82.20;;;;;;6275693;22;20102;-48
2022/04/10 03:22:39;;;;;;;18.85;4.35;;;4.10;82.80;;;;;;6275047;22;20029;-46
2022/04/10 03:25:06;;;;;;;18.05;4.07;;;4.20;82.90;;;;;;6275880;22;20349;-47
2022/04/10 03:27:33;;;;;;;19.15;4.50;;;4.20;83.50;;;;;;6276718;22;20280;-48
2022/04/10 03:30:00;;;;;;;15.18;4.13;;;4.30;84.00;;;;;;6237027;23;20082;-50
2022/04/10 03:32:26;;;;;;;20.80;4.35;;;4.20;84.30;;;;;;6245385;23;20010;-50
2022/04/10 03:34:56;;;;;;;20.33;4.05;;;4.20;84.50;;;;;;6245334;23;20004;-46
2022/04/10 03:37:22;;;;;;;18.08;4.38;;;4.20;84.70;;;;;;6245850;23;20004;-47
2022/04/10 03:39:49;;;;;;;21.67;4.22;;;4.10;84.60;;;;;;6193549;23;20047;-47
2022/04/10 03:42:16;;;;;;;16.50;4.03;;;4.00;84.50;;;;;;6218909;23;20051;-50
2022/04/10 03:44:43;;;;;;;24.85;6.22;;;4.10;84.50;;;;;;6244979;23;20000;-47
2022/04/10 03:47:10;;;;;;;18.08;5.07;;;4.00;84.40;;;;;;6219250;23;19996;-53
2022/04/10 03:49:36;;;;;;;25.42;4.60;;;4.10;84.70;;;;;;6244961;23;19997;-55
2022/04/10 03:52:03;;;;;;;23.17;4.88;;;4.10;84.90;;;;;;6245759;23;20015;-53
2022/04/10 03:54:29;;;;;;;24.77;5.22;;;4.10;84.90;;;;;;6219057;23;20015;-54
2022/04/10 03:56:55;;;;;;;15.50;3.92;;;4.10;84.90;;;;;;6245110;23;20008;-52
2022/04/10 03:59:24;;;;;;;17.48;4.47;;;4.10;84.60;;;;;;6244934;23;20035;-54
2022/04/10 04:01:51;;;;;;;16.08;3.90;;;4.20;84.40;;;;;;6218654;23;20004;-50
2022/04/10 04:04:18;;;;;;;15.38;3.58;;;4.10;83.90;;;;;;6218628;23;20000;-54
2022/04/10 04:06:45;;;;;;;13.45;3.70;;;4.10;83.90;;;;;;6218706;23;20078;-50
2022/04/10 04:09:12;;;;;;;15.38;2.92;;;4.00;84.00;;;;;;6244914;23;20000;-54
2022/04/10 04:11:39;;;;;;;15.32;3.58;;;4.00;83.90;;;;;;6245439;23;20000;-50
2022/04/10 04:14:07;;;;;;;21.33;4.18;;;3.90;83.80;;;;;;6245324;23;20055;-51
2022/04/10 04:16:34;;;;;;;12.73;2.83;;;3.80;83.90;;;;;;6244922;23;20020;-50
2022/04/10 04:19:00;;;;;;;15.00;4.18;;;3.70;84.40;;;;;;6245395;23;20391;-54
2022/04/10 04:21:27;;;;;;;17.13;4.28;;;3.60;84.40;;;;;;6218616;23;20055;-52
2022/04/10 04:23:56;;;;;;;14.80;3.25;;;3.60;84.60;;;;;;6218968;23;20019;-54
2022/04/10 04:26:22;;;;;;;13.52;2.70;;;3.50;84.80;;;;;;6245669;23;20327;-54
2022/04/10 04:28:51;;;;;;;15.43;4.18;;;3.50;84.70;;;;;;6245162;23;20000;-51
2022/04/10 04:31:18;;;;;;;12.35;3.25;;;3.50;84.70;;;;;;6219497;23;20015;-52
2022/04/10 04:33:45;;;;;;;11.55;3.13;;;3.50;84.70;;;;;;6245538;23;20011;-52
2022/04/10 04:36:12;;;;;;;21.77;4.97;;;3.50;84.70;;;;;;6246285;23;20353;-50
2022/04/10 04:38:39;;;;;;;21.38;7.47;;;3.50;84.70;;;;;;6247234;23;19996;-50
2022/04/10 04:41:08;;;;;;;44.38;14.88;;;3.50;84.60;;;;;;6245479;23;20004;-48
2022/04/10 04:43:39;;;;;;;35.03;11.90;;;3.50;84.60;;;;;;6246923;23;20607;-49
2022/04/10 04:46:05;;;;;;;17.85;4.50;;;3.50;84.40;;;;;;6219933;23;20075;-47
2022/04/10 04:48:31;;;;;;;11.60;3.75;;;3.40;84.10;;;;;;6245816;23;20038;-50
2022/04/10 04:51:01;;;;;;;13.43;3.08;;;3.30;84.10;;;;;;6246806;23;19996;-48
2022/04/10 04:53:28;;;;;;;14.35;4.15;;;3.30;84.30;;;;;;6246800;23;20004;-51
2022/04/10 04:55:55;;;;;;;8.00;2.05;;;3.20;84.60;;;;;;6220773;23;20063;-47
2022/04/10 04:58:25;;;;;;;10.75;2.60;;;3.30;84.70;;;;;;6220303;23;20415;-47
2022/04/10 05:00:53;;;;;;;10.93;2.65;;;3.30;84.70;;;;;;6246836;23;20010;-46
2022/04/10 05:03:20;;;;;;;9.20;2.85;;;3.30;84.90;;;;;;6246515;23;20000;-46
2022/04/10 05:05:47;;;;;;;15.55;3.85;;;3.30;85.00;;;;;;6246831;23;20012;-47
2022/04/10 05:08:13;;;;;;;14.93;3.45;;;3.30;85.10;;;;;;6246607;23;20027;-46
2022/04/10 05:10:45;;;;;;;15.20;3.75;;;3.40;85.50;;;;;;6246545;23;20000;-49
2022/04/10 05:13:11;;;;;;;18.17;3.10;;;3.40;85.60;;;;;;6246678;23;20008;-46
2022/04/10 05:15:38;;;;;;;13.52;3.20;;;3.60;85.10;;;;;;6246669;23;20422;-47
2022/04/10 05:18:05;;;;;;;16.55;4.57;;;3.80;84.40;;;;;;6246581;23;20331;-49
2022/04/10 05:20:32;;;;;;;15.50;2.85;;;3.90;84.30;;;;;;6219878;23;20007;-47
2022/04/10 05:22:59;;;;;;;13.55;3.47;;;4.00;84.50;;;;;;6220059;23;20090;-46
2022/04/10 05:25:26;;;;;;;10.63;3.10;;;4.10;84.70;;;;;;6246370;23;20343;-45
2022/04/10 05:27:53;;;;;;;17.90;4.38;;;4.10;84.90;;;;;;6246513;23;20012;-46
2022/04/10 05:30:20;;;;;;;14.95;3.72;;;4.10;84.90;;;;;;6245111;23;20371;-45
2022/04/10 05:32:47;;;;;;;16.67;4.15;;;4.10;85.00;;;;;;6246518;23;20502;-45
2022/04/10 05:35:14;;;;;;;13.68;4.03;;;4.10;85.10;;;;;;6246176;23;20007;-45
2022/04/10 05:37:40;;;;;;;27.63;4.97;;;4.10;85.10;;;;;;6246543;23;20011;-46
2022/04/10 05:40:08;;;;;;;15.45;4.13;;;4.20;85.00;;;;;;6218963;23;20040;-44
2022/04/10 05:42:45;;;;;;;21.15;3.17;;;4.20;85.10;;;;;;6246295;23;20035;-45
2022/04/10 05:45:12;;;;;;;15.38;3.25;;;4.30;85.00;;;;;;6246301;23;20332;-45
2022/04/10 05:47:41;;;;;;;15.05;2.95;;;4.40;84.70;;;;;;6195087;23;20016;-45
2022/04/10 05:50:12;;;;;;;13.85;3.03;;;4.40;84.50;;;;;;6246294;23;20000;-44
2022/04/10 05:52:59;;;;;;;9.65;2.35;;;4.50;84.10;;;;;;6246202;23;20000;-45
2022/04/10 05:55:28;;;;;;;11.57;2.58;;;4.50;83.60;;;;;;6246182;23;20004;-45
2022/04/10 05:57:55;;;;;;;14.98;2.78;;;4.60;83.40;;;;;;6246037;23;20428;-45
2022/04/10 06:00:25;;;;;;;15.15;2.45;;;4.70;83.20;;;;;;6219350;23;20023;-46
2022/04/10 06:02:53;;;;;;;17.20;3.30;;;4.70;83.00;;;;;;6219402;23;20411;-44
2022/04/10 06:05:23;;;;;;;12.48;2.60;;;4.90;83.10;;;;;;6245493;23;20000;-43
2022/04/10 06:07:49;;;;;;;9.55;2.90;;;5.20;82.60;;;;;;6246435;23;20000;-43
2022/04/10 06:10:16;;;;;;;14.68;3.22;;;5.50;82.00;;;;;;6218667;23;20004;-42
2022/04/10 06:12:43;;;;;;;21.33;3.38;;;5.70;81.50;;;;;;6245754;23;19996;-43
2022/04/10 06:15:10;;;;;;;16.10;2.90;;;5.90;81.50;;;;;;6244178;23;20012;-41
2022/04/10 06:17:37;;;;;;;13.20;2.78;;;5.90;80.60;;;;;;6244215;23;20359;-41
2022/04/10 06:20:07;;;;;;;13.68;2.63;;;5.90;79.20;;;;;;6219505;23;20102;-41
2022/04/10 06:22:33;;;;;;;12.68;2.65;;;6.00;78.80;;;;;;6245440;23;20015;-43
2022/04/10 06:25:00;;;;;;;13.35;3.97;;;5.90;78.70;;;;;;6246159;23;20312;-44
2022/04/10 06:27:26;;;;;;;16.23;4.30;;;5.60;78.80;;;;;;6218489;23;20014;-48
2022/04/10 06:29:53;;;;;;;7.93;2.28;;;5.00;80.70;;;;;;6243886;23;20087;-50
2022/04/10 06:32:20;;;;;;;6.93;2.28;;;4.50;81.70;;;;;;6245726;23;20015;-59
2022/04/10 06:34:52;;;;;;;15.85;2.90;;;4.20;83.20;;;;;;6219103;23;20288;-61
2022/04/10 06:37:21;;;;;;;14.27;4.55;;;4.20;83.60;;;;;;6246145;23;20011;-56
2022/04/10 06:39:48;;;;;;;11.00;2.95;;;4.20;84.10;;;;;;6245304;23;20004;-51
2022/04/10 06:42:15;;;;;;;21.13;5.18;;;4.40;84.40;;;;;;6218668;23;20422;-49
2022/04/10 06:44:44;;;;;;;10.82;4.63;;;4.50;84.20;;;;;;6244618;23;20015;-50
2022/04/10 06:47:12;;;;;;;6.95;1.98;;;4.60;83.80;;;;;;6217960;23;19996;-49
2022/04/10 06:49:39;;;;;;;9.18;2.45;;;4.70;82.30;;;;;;6245410;23;20116;-48
2022/04/10 06:52:07;;;;;;;9.52;2.25;;;4.70;81.00;;;;;;6218345;23;20012;-47
2022/04/10 06:54:33;;;;;;;11.20;3.25;;;4.90;81.10;;;;;;6244852;23;20028;-46
2022/04/10 06:57:00;;;;;;;16.45;2.92;;;5.00;80.40;;;;;;6244706;23;20019;-47
2022/04/10 06:59:29;;;;;;;8.48;2.25;;;5.20;80.80;;;;;;6244821;23;20004;-47
2022/04/10 07:01:56;;;;;;;7.10;1.85;;;5.40;80.70;;;;;;6244340;23;20004;-47
2022/04/10 07:04:23;;;;;;;9.85;2.03;;;5.60;80.70;;;;;;6245046;23;20032;-45
2022/04/10 07:06:52;;;;;;;10.48;2.67;;;5.90;80.90;;;;;;6245433;23;20032;-44
2022/04/10 07:09:19;;;;;;;12.73;3.30;;;6.20;80.70;;;;;;6245287;23;20407;-46
2022/04/10 07:11:48;;;;;;;21.25;4.10;;;6.40;80.60;;;;;;6245148;23;20584;-44
2022/04/10 07:14:14;;;;;;;11.00;2.38;;;6.40;80.30;;;;;;6218371;23;20299;-44
2022/04/10 07:16:44;;;;;;;11.60;2.10;;;6.60;80.30;;;;;;6245187;23;20620;-44
2022/04/10 07:19:11;;;;;;;12.40;2.72;;;6.50;79.50;;;;;;6244920;23;20390;-43
2022/04/10 07:24:23;;;;;;;10.35;2.58;;;5.70;81.10;;;;;;6245867;23;20074;-45
2022/04/10 07:26:52;;;;;;;13.05;2.53;;;5.40;81.90;;;;;;6244468;23;20030;-44
2022/04/10 07:29:18;;;;;;;8.38;1.55;;;5.10;80.70;;;;;;6244029;23;20067;-44
2022/04/10 07:31:44;;;;;;;6.88;2.10;;;5.00;81.10;;;;;;6243972;23;20035;-44
2022/04/10 07:34:10;;;;;;;11.20;1.70;;;5.10;81.40;;;;;;6244935;23;20027;-43
2022/04/10 07:36:40;;;;;;;9.50;1.92;;;5.20;81.80;;;;;;6244987;23;20008;-43
2022/04/10 07:39:08;;;;;;;7.30;2.00;;;5.30;80.50;;;;;;6218485;23;20003;-43
2022/04/10 07:41:35;;;;;;;8.88;1.98;;;5.40;80.50;;;;;;6243953;23;20310;-43
2022/04/10 07:44:02;;;;;;;9.77;1.65;;;5.40;80.10;;;;;;6218383;23;20418;-42
2022/04/10 07:49:14;;;;;;;9.25;1.83;;;5.80;78.80;;;;;;6245300;23;20063;-42
2022/04/10 07:51:39;;;;;;;6.72;1.42;;;6.40;77.80;;;;;;6243821;23;20370;-42
2022/04/10 07:54:06;;;;;;;9.88;1.77;;;6.70;76.90;;;;;;6244610;23;20008;-43
2022/04/10 07:56:33;;;;;;;9.30;2.70;;;6.90;77.20;;;;;;6193212;23;20379;-46
2022/04/10 07:59:00;;;;;;;10.68;3.75;;;7.00;76.60;;;;;;6243390;23;20071;-43
2022/04/10 08:01:27;;;;;;;16.20;2.85;;;6.90;76.70;;;;;;6244255;23;20023;-46
2022/04/10 08:03:54;;;;;;;12.18;2.58;;;7.20;76.90;;;;;;6245041;23;20039;-43
2022/04/10 08:06:21;;;;;;;9.80;2.65;;;7.60;77.10;;;;;;6195198;23;20000;-44
2022/04/10 08:08:48;;;;;;;11.15;2.58;;;7.70;74.80;;;;;;6246578;23;20023;-44
2022/04/10 08:11:14;;;;;;;8.35;2.40;;;8.20;74.70;;;;;;6246511;23;20575;-47
2022/04/10 08:13:41;;;;;;;12.70;2.80;;;8.20;72.90;;;;;;6220122;23;20008;-42
2022/04/10 08:16:08;;;;;;;15.80;2.63;;;8.40;71.80;;;;;;6246278;23;20059;-44
2022/04/10 08:18:35;;;;;;;14.95;2.30;;;8.30;70.40;;;;;;6246380;23;20008;-43
2022/04/10 08:21:04;;;;;;;16.45;2.45;;;7.80;70.70;;;;;;6246400;23;20063;-45
2022/04/10 08:23:31;;;;;;;7.80;3.00;;;7.80;72.30;;;;;;6246323;23;20008;-44
2022/04/10 08:26:01;;;;;;;11.00;3.17;;;8.30;71.50;;;;;;6244670;23;20019;-41
2022/04/10 08:28:31;;;;;;;13.73;3.00;;;8.50;71.30;;;;;;6247296;23;20004;-42
2022/04/10 08:30:58;;;;;;;7.65;2.58;;;9.20;70.60;;;;;;6246501;23;20023;-43
2022/04/10 08:33:28;;;;;;;11.38;3.08;;;9.70;68.30;;;;;;6246631;23;20004;-42
2022/04/10 08:35:56;;;;;;;12.10;2.67;;;9.30;66.20;;;;;;6246399;23;20026;-41
2022/04/10 08:38:23;;;;;;;12.20;2.78;;;8.50;67.20;;;;;;6220366;23;20087;-43
2022/04/10 08:40:58;;;;;;;15.13;2.63;;;8.00;68.90;;;;;;6247121;23;20023;-42
2022/04/10 08:43:25;;;;;;;7.38;2.42;;;8.10;69.40;;;;;;6246302;23;20751;-41
2022/04/10 08:45:54;;;;;;;10.68;4.22;;;8.50;69.30;;;;;;6247425;23;20003;-41
2022/04/10 08:48:22;;;;;;;11.18;2.30;;;9.00;66.30;;;;;;6247267;23;19996;-42
2022/04/10 08:50:52;;;;;;;8.20;2.38;;;9.40;65.40;;;;;;6219990;23;20007;-43
2022/04/10 08:53:20;;;;;;;11.07;2.30;;;9.40;62.60;;;;;;6246787;23;20387;-44
2022/04/10 08:55:46;;;;;;;7.40;2.28;;;9.70;61.30;;;;;;6220178;23;20004;-42
2022/04/10 08:58:12;;;;;;;8.77;1.77;;;10.00;60.60;;;;;;6220518;23;20007;-41
2022/04/10 09:00:43;;;;;;;11.05;2.13;;;9.80;59.50;;;;;;6246614;23;20058;-42
2022/04/10 09:03:10;;;;;;;8.63;2.95;;;9.30;61.90;;;;;;6220127;23;20000;-42
2022/04/10 09:05:37;;;;;;;4.55;1.65;;;8.40;66.50;;;;;;6246502;23;20004;-43
2022/04/10 09:08:23;;;;;;;9.73;1.20;;;7.60;68.40;;;;;;6246304;23;20004;-47
2022/04/10 09:10:54;;;;;;;9.02;1.38;;;7.30;69.40;;;;;;6246191;23;20064;-42
2022/04/10 09:13:49;;;;;;;11.13;1.77;;;7.10;71.40;;;;;;6245333;23;20408;-42
2022/04/10 09:16:34;;;;;;;4.47;1.50;;;7.30;72.50;;;;;;6218655;23;20147;-44
2022/04/10 09:19:01;;;;;;;7.50;1.65;;;7.50;71.80;;;;;;6219304;23;20004;-43
2022/04/10 09:21:33;;;;;;;12.15;1.98;;;8.00;70.20;;;;;;6245850;23;20015;-45
2022/04/10 09:24:02;;;;;;;7.38;1.73;;;8.40;67.40;;;;;;6220000;23;20004;-44
2022/04/10 09:26:50;;;;;;;10.68;2.50;;;8.10;68.80;;;;;;6246336;23;20075;-43
2022/04/10 09:29:18;;;;;;;9.95;1.92;;;8.10;70.80;;;;;;6246315;23;20028;-42
2022/04/10 09:31:45;;;;;;;12.10;1.83;;;8.50;72.00;;;;;;6245552;23;20091;-42
2022/04/10 09:34:19;;;;;;;13.18;1.95;;;8.80;71.10;;;;;;6245910;23;20007;-42
2022/04/10 09:37:05;;;;;;;8.88;1.95;;;8.60;72.10;;;;;;6246367;23;20300;-41
2022/04/10 09:39:52;;;;;;;13.48;2.45;;;9.10;70.60;;;;;;6245889;23;19996;-42
2022/04/10 09:42:31;;;;;;;10.25;2.45;;;8.50;71.50;;;;;;6245817;23;20035;-57
2022/04/10 09:44:56;;;;;;;12.48;2.22;;;7.40;75.90;;;;;;6245719;23;20004;-51
2022/04/10 09:47:26;;;;;;;13.63;2.70;;;6.60;78.70;;;;;;6245883;23;20005;-53
2022/04/10 09:49:53;;;;;;;8.52;1.85;;;6.10;80.20;;;;;;6245732;23;20324;-48
2022/04/10 09:52:20;;;;;;;14.55;2.80;;;6.10;82.30;;;;;;6245913;23;20004;-48
2022/04/10 09:54:50;;;;;;;14.57;2.95;;;6.20;82.50;;;;;;6243728;23;20000;-50
2022/04/10 09:57:18;;;;;;;8.98;1.98;;;6.90;84.70;;;;;;6244408;23;20012;-45
2022/04/10 09:59:47;;;;;;;8.00;2.00;;;7.40;79.60;;;;;;6245088;23;20373;-43
2022/04/10 10:02:16;;;;;;;15.60;2.47;;;7.90;73.20;;;;;;6244712;23;20083;-42
2022/04/10 10:04:45;;;;;;;13.48;2.63;;;8.40;73.60;;;;;;6239986;23;20034;-43
2022/04/10 10:07:20;;;;;;;12.65;2.42;;;8.60;69.70;;;;;;6217889;23;20008;-46
2022/04/10 10:09:48;;;;;;;11.30;2.33;;;8.70;70.00;;;;;;6244618;23;20010;-44
2022/04/10 10:12:16;;;;;;;26.80;5.00;;;8.80;69.50;;;;;;6244958;23;20022;-43
2022/04/10 10:14:44;;;;;;;13.43;2.88;;;8.80;68.70;;;;;;6244616;23;20004;-42
2022/04/10 10:17:11;;;;;;;9.30;2.65;;;9.10;69.50;;;;;;6243260;23;20079;-42
2022/04/10 10:19:39;;;;;;;7.90;2.47;;;9.20;66.80;;;;;;6217427;23;20016;-43
2022/04/10 10:22:09;;;;;;;9.88;2.50;;;9.20;67.80;;;;;;6245606;23;20000;-42
2022/04/10 10:24:57;;;;;;;14.25;4.35;;;9.40;67.50;;;;;;6243796;23;20438;-41
2022/04/10 10:27:41;;;;;;;12.50;2.88;;;9.10;67.50;;;;;;6218524;23;20004;-42
2022/04/10 10:30:43;;;;;;;10.95;2.55;;;8.90;68.20;;;;;;6218609;23;20012;-42
2022/04/10 10:33:23;;;;;;;12.10;2.60;;;8.70;69.30;;;;;;6218510;23;20008;-43
2022/04/10 10:36:09;;;;;;;18.65;3.45;;;9.10;70.10;;;;;;6218709;23;20439;-41
2022/04/10 10:38:50;;;;;;;17.88;3.50;;;9.10;67.90;;;;;;6218224;23;20007;-43
2022/04/10 10:41:18;;;;;;;14.88;3.00;;;9.30;69.10;;;;;;6244897;23;20088;-42
2022/04/10 10:43:49;;;;;;;12.52;2.88;;;9.70;68.00;;;;;;6243404;23;20075;-43
2022/04/10 10:46:34;;;;;;;14.68;2.78;;;9.10;67.90;;;;;;6243283;23;20007;-45
2022/04/10 10:49:11;;;;;;;8.98;2.60;;;7.90;73.40;;;;;;6244776;23;20383;-57
2022/04/10 10:51:56;;;;;;;10.50;3.42;;;7.10;78.00;;;;;;6242346;23;20261;-60
2022/04/10 10:54:44;;;;;;;11.25;2.40;;;6.20;80.60;;;;;;6217257;23;20004;-61
2022/04/10 10:57:31;;;;;;;12.38;3.33;;;5.90;81.90;;;;;;6244232;23;19995;-60
2022/04/10 11:00:17;;;;;;;14.15;2.80;;;5.60;82.10;;;;;;6243900;23;20002;-51
2022/04/10 11:02:54;;;;;;;8.00;1.77;;;5.80;83.90;;;;;;6243918;23;20008;-53
2022/04/10 11:05:39;;;;;;;9.13;1.65;;;5.90;84.50;;;;;;6243814;23;20092;-49
2022/04/10 11:08:36;;;;;;;8.43;3.15;;;6.70;86.00;;;;;;6244586;23;20008;-52
2022/04/10 11:11:09;;;;;;;12.60;3.08;;;6.90;84.60;;;;;;6244138;23;20026;-44
2022/04/10 11:13:42;;;;;;;16.63;2.83;;;7.30;83.50;;;;;;6243742;23;20387;-45
2022/04/10 11:16:11;;;;;;;11.65;3.05;;;7.60;81.00;;;;;;6244433;23;20035;-43
2022/04/10 11:18:42;;;;;;;10.48;2.78;;;8.10;78.90;;;;;;6217206;23;20008;-44
2022/04/10 11:21:15;;;;;;;17.20;2.80;;;8.50;76.80;;;;;;6217532;23;20019;-42
2022/04/10 11:23:45;;;;;;;11.50;2.65;;;8.30;74.80;;;;;;6243833;23;20008;-44
2022/04/10 11:26:42;;;;;;;9.25;2.63;;;8.20;75.10;;;;;;6216717;23;20035;-43
2022/04/10 11:29:08;;;;;;;12.70;3.42;;;8.40;76.00;;;;;;6244241;23;20038;-43
2022/04/10 11:31:42;;;;;;;11.25;2.25;;;8.30;75.00;;;;;;6243519;23;20004;-45
2022/04/10 11:34:12;;;;;;;12.43;2.45;;;8.10;74.20;;;;;;6216635;23;20004;-45
2022/04/10 11:37:16;;;;;;;10.73;3.63;;;8.20;74.80;;;;;;6244036;23;20027;-44
2022/04/10 11:39:43;;;;;;;11.48;2.88;;;8.90;75.50;;;;;;6242032;23;20422;-43
2022/04/10 11:42:14;;;;;;;16.25;2.47;;;8.80;72.20;;;;;;6244018;23;20084;-43
2022/04/10 11:44:42;;;;;;;12.65;3.65;;;8.90;71.40;;;;;;6243807;23;20005;-43
2022/04/10 11:47:10;;;;;;;11.23;2.88;;;8.60;70.20;;;;;;6243189;23;20015;-42
2022/04/10 11:49:38;;;;;;;13.10;2.90;;;8.70;70.70;;;;;;6243873;23;20061;-43
2022/04/10 11:52:07;;;;;;;11.43;3.25;;;9.00;69.10;;;;;;6244513;23;20008;-42
2022/04/10 11:54:37;;;;;;;12.90;3.40;;;9.40;70.50;;;;;;6243781;23;20031;-44
2022/04/10 11:57:06;;;;;;;13.45;2.75;;;9.60;69.40;;;;;;6243005;23;20004;-42
2022/04/10 11:59:37;;;;;;;14.88;2.55;;;9.70;66.10;;;;;;6217590;23;20018;-43
2022/04/10 12:02:07;;;;;;;13.70;3.40;;;9.20;65.80;;;;;;6217759;23;20399;-42
2022/04/10 12:04:38;;;;;;;7.80;1.92;;;8.80;69.50;;;;;;6244219;23;20009;-45
2022/04/10 12:07:21;;;;;;;14.25;3.85;;;8.50;69.70;;;;;;6217278;23;20423;-45
2022/04/10 12:09:51;;;;;;;13.02;2.75;;;8.70;71.80;;;;;;6244070;23;20367;-44
2022/04/10 12:12:23;;;;;;;19.35;3.97;;;9.20;71.30;;;;;;6242255;23;20015;-41
2022/04/10 12:14:50;;;;;;;14.48;2.88;;;9.60;71.50;;;;;;6242734;23;20549;-44
2022/04/10 12:17:21;;;;;;;10.90;2.28;;;9.70;69.40;;;;;;6244370;23;20011;-43
2022/04/10 12:19:54;;;;;;;6.78;2.78;;;9.50;68.40;;;;;;6244177;23;20008;-42
2022/04/10 12:22:24;;;;;;;10.45;2.30;;;9.50;65.90;;;;;;6243876;23;20004;-41
2022/04/10 12:25:01;;;;;;;11.02;4.25;;;9.90;67.50;;;;;;6218182;23;20111;-41
2022/04/10 12:27:27;;;;;;;11.80;1.90;;;9.70;68.50;;;;;;6244909;23;20000;-41
2022/04/10 12:29:56;;;;;;;13.23;2.30;;;9.60;69.00;;;;;;6243815;23;20031;-42
2022/04/10 12:32:24;;;;;;;10.48;1.88;;;9.40;69.20;;;;;;6217528;23;20004;-43
2022/04/10 12:34:53;;;;;;;9.18;1.65;;;9.50;69.20;;;;;;6217552;23;20011;-42
2022/04/10 12:37:20;;;;;;;10.95;2.00;;;9.80;68.20;;;;;;6244916;23;20419;-42
2022/04/10 12:39:47;;;;;;;9.48;2.80;;;9.90;65.80;;;;;;6243717;23;20019;-43
2022/04/10 12:42:20;;;;;;;6.43;1.35;;;9.60;65.40;;;;;;6244460;23;20008;-43
2022/04/10 12:44:58;;;;;;;8.43;1.40;;;9.50;65.60;;;;;;6244306;23;20015;-42
2022/04/10 12:47:45;;;;;;;5.47;1.40;;;9.40;67.10;;;;;;6241074;23;20087;-42
2022/04/10 12:50:15;;;;;;;9.10;1.80;;;9.50;69.60;;;;;;6192497;23;20001;-42
2022/04/10 12:52:42;;;;;;;5.45;1.80;;;9.40;66.60;;;;;;6244526;23;20015;-43
2022/04/10 12:55:19;;;;;;;12.10;2.28;;;9.40;67.50;;;;;;6219256;23;20008;-43
2022/04/10 12:57:55;;;;;;;5.80;1.45;;;9.20;66.80;;;;;;6245171;23;20004;-43
2022/04/10 13:00:35;;;;;;;7.85;1.85;;;9.30;66.70;;;;;;6245917;23;20004;-43
2022/04/10 13:03:29;;;;;;;9.43;2.35;;;9.50;67.40;;;;;;6245324;23;20000;-42
2022/04/10 13:06:05;;;;;;;8.02;2.15;;;9.40;66.00;;;;;;6218305;23;20004;-41